Time;durP1;ratioP1;P1;durP2;ratioP2;P2;SDS_P1;SDS_P2;PMS_P1;PMS_P2;Temp;Humidity;BMP_temperature;BMP_pressure;BME280_temperature;BME280_humidity;BME280_pressure;Samples;Min_cycle;Max_cycle;Signal;HPM_P1;HPM_P2
2022/12/29 00:01:49;;;;;;;3.17;1.75;;;;;;;1.28;70.12;99590.53;5072253;28;20174;-61
2022/12/29 00:04:15;;;;;;;4.93;1.60;;;;;;;1.26;70.01;99585.34;5072069;28;20036;-61
2022/12/29 00:06:42;;;;;;;3.33;1.63;;;;;;;1.22;70.03;99583.78;5072507;28;20055;-62
2022/12/29 00:09:10;;;;;;;5.70;1.75;;;;;;;1.15;70.34;99587.59;5071997;28;20130;-61
2022/12/29 00:11:35;;;;;;;7.32;2.22;;;;;;;1.13;70.23;99584.19;5072507;28;20140;-60
2022/12/29 00:16:45;;;;;;;2.65;1.58;;;;;;;1.12;69.82;99582.47;5072506;28;20436;-60
2022/12/29 00:35:50;;;;;;;2.42;1.15;;;;;;;1.18;68.11;99602.44;5072888;28;20046;-61
2022/12/29 00:46:27;;;;;;;4.55;1.40;;;;;;;0.94;67.59;99624.53;5075939;28;20036;-61
2022/12/29 00:51:36;;;;;;;5.88;1.27;;;;;;;0.79;66.89;99590.97;5075918;28;20115;-59
2022/12/29 00:54:01;;;;;;;4.25;1.13;;;;;;;0.88;67.41;99611.63;5074100;28;20562;-61
2022/12/29 00:56:27;;;;;;;4.90;0.98;;;;;;;0.82;67.06;99599.56;5075775;28;20512;-62
2022/12/29 00:58:52;;;;;;;4.72;1.20;;;;;;;0.83;67.03;99608.34;5075973;28;20036;-62
2022/12/29 01:01:17;;;;;;;6.93;1.35;;;;;;;0.87;67.40;99617.84;5075258;28;20025;-63
2022/12/29 01:03:44;;;;;;;4.68;1.33;;;;;;;0.87;67.40;99617.00;5075075;28;20166;-62
2022/12/29 01:06:11;;;;;;;3.85;1.58;;;;;;;0.89;66.71;99617.78;5075751;28;20047;-62
2022/12/29 01:08:37;;;;;;;3.75;1.40;;;;;;;0.87;66.96;99623.09;5075039;28;20155;-61
2022/12/29 01:11:05;;;;;;;4.40;1.27;;;;;;;0.87;67.11;99625.75;5075178;28;20470;-61
2022/12/29 01:13:31;;;;;;;3.92;1.30;;;;;;;0.84;66.66;99623.25;5075404;28;20109;-59
2022/12/29 01:15:57;;;;;;;5.80;1.27;;;;;;;0.84;66.73;99621.47;5075851;28;20461;-59
2022/12/29 01:18:24;;;;;;;3.28;1.20;;;;;;;0.79;66.83;99627.88;5075250;28;20059;-61
2022/12/29 01:20:50;;;;;;;4.82;1.70;;;;;;;0.77;66.89;99627.91;5074719;28;20040;-61
2022/12/29 01:23:15;;;;;;;4.68;1.20;;;;;;;0.52;66.87;99589.47;5075228;28;20032;-61
2022/12/29 01:25:41;;;;;;;4.05;1.25;;;;;;;0.73;66.53;99631.63;5074372;28;20036;-62
2022/12/29 01:28:08;;;;;;;4.00;1.00;;;;;;;0.68;65.91;99621.25;5074878;28;20025;-62
2022/12/29 01:30:36;;;;;;;6.20;1.10;;;;;;;0.63;66.63;99625.88;5074580;28;20053;-62
2022/12/29 01:33:02;;;;;;;3.38;0.93;;;;;;;0.56;66.20;99627.06;5073784;28;20372;-61
2022/12/29 01:35:27;;;;;;;3.08;1.00;;;;;;;0.64;66.58;99635.50;5075476;28;20028;-62
2022/12/29 01:37:53;;;;;;;4.93;1.23;;;;;;;0.62;66.17;99641.78;5073749;28;20460;-64
2022/12/29 01:40:19;;;;;;;6.53;1.30;;;;;;;0.65;66.66;99639.00;5074662;28;20108;-63
2022/12/29 01:42:44;;;;;;;5.53;1.15;;;;;;;0.59;66.80;99631.34;5073974;28;20031;-63
2022/12/29 01:45:14;;;;;;;3.70;1.20;;;;;;;0.63;66.74;99639.06;5074844;28;20047;-63
2022/12/29 01:47:54;;;;;;;6.05;1.38;;;;;;;0.64;66.71;99630.22;5074078;28;20028;-63
2022/12/29 01:50:31;;;;;;;5.97;1.30;;;;;;;0.64;66.67;99639.94;5074438;28;20441;-63
2022/12/29 01:53:01;;;;;;;6.50;1.48;;;;;;;0.64;66.32;99640.75;5075200;28;20440;-63
2022/12/29 01:55:42;;;;;;;5.35;1.50;;;;;;;0.62;67.05;99639.97;5074766;28;20039;-62
2022/12/29 01:58:11;;;;;;;6.40;1.58;;;;;;;0.61;66.60;99648.81;5074177;28;20033;-62
2022/12/29 02:00:37;;;;;;;6.50;1.67;;;;;;;0.49;66.37;99637.00;5054306;28;20509;-62
2022/12/29 02:03:04;;;;;;;3.70;1.30;;;;;;;0.53;66.77;99640.38;5068830;28;20037;-63
2022/12/29 02:05:40;;;;;;;8.82;1.60;;;;;;;0.53;66.66;99643.00;5074931;28;20082;-62
2022/12/29 02:08:05;;;;;;;8.68;1.50;;;;;;;0.47;66.63;99648.50;5074362;28;20052;-61
2022/12/29 02:10:34;;;;;;;5.57;1.30;;;;;;;0.42;67.05;99643.47;5074515;28;20089;-61
2022/12/29 02:12:59;;;;;;;4.93;1.30;;;;;;;0.38;67.12;99650.63;5074633;28;20042;-62
2022/12/29 02:15:51;;;;;;;4.50;1.60;;;;;;;0.39;67.11;99652.34;5074259;28;20112;-61
2022/12/29 02:18:23;;;;;;;6.22;1.45;;;;;;;0.24;66.96;99631.88;5073721;28;20104;-61
2022/12/29 02:21:17;;;;;;;5.72;1.35;;;;;;;0.30;67.07;99644.81;5074073;28;20467;-62
2022/12/29 02:24:06;;;;;;;3.97;1.63;;;;;;;0.26;67.25;99646.72;5073154;28;20115;-62
2022/12/29 02:26:53;;;;;;;6.28;1.20;;;;;;;0.27;67.11;99644.97;5074178;28;20074;-61
2022/12/29 02:29:46;;;;;;;6.88;1.85;;;;;;;0.22;67.02;99649.53;5072884;28;20082;-62
2022/12/29 02:32:21;;;;;;;6.05;1.55;;;;;;;0.07;67.22;99633.44;5074123;28;20059;-63
2022/12/29 02:35:22;;;;;;;6.83;1.50;;;;;;;0.13;67.26;99653.41;5072621;28;20338;-62
2022/12/29 02:37:50;;;;;;;4.15;1.48;;;;;;;0.05;66.84;99652.84;5068274;28;20273;-61
2022/12/29 02:40:21;;;;;;;3.97;1.10;;;;;;;0.01;67.22;99660.03;5073636;28;20064;-61
2022/12/29 02:43:04;;;;;;;6.40;1.48;;;;;;;-0.03;67.64;99658.41;5073394;28;20040;-59
2022/12/29 02:45:45;;;;;;;8.10;1.40;;;;;;;-0.04;67.14;99659.31;5073084;28;20460;-59
2022/12/29 02:48:33;;;;;;;5.43;1.33;;;;;;;-0.01;67.17;99678.50;5073119;28;20029;-59
2022/12/29 02:51:02;;;;;;;4.28;1.23;;;;;;;-0.05;67.31;99678.66;5073415;28;20064;-60
2022/12/29 02:56:16;;;;;;;5.57;1.50;;;;;;;-0.10;67.14;99680.63;5073279;28;20039;-59
2022/12/29 02:58:41;;;;;;;10.27;1.67;;;;;;;-0.16;67.06;99671.19;5072499;28;20024;-60
2022/12/29 03:01:12;;;;;;;5.95;1.27;;;;;;;-0.09;67.44;99674.44;5073326;28;20037;-57
2022/12/29 03:03:59;;;;;;;9.32;1.83;;;;;;;-0.10;67.02;99683.25;5072972;28;20058;-61
2022/12/29 03:06:36;;;;;;;7.95;1.50;;;;;;;-0.26;67.27;99677.75;5072835;28;20474;-62
2022/12/29 03:09:20;;;;;;;7.80;1.60;;;;;;;-0.30;67.17;99675.22;5073423;28;20368;-62
2022/12/29 03:12:15;;;;;;;4.27;1.40;;;;;;;-0.17;67.64;99677.38;5052334;28;20037;-62
2022/12/29 03:18:02;;;;;;;6.68;1.83;;;;;;;-0.20;67.30;99681.00;5051878;28;20041;-63
2022/12/29 03:20:39;;;;;;;4.63;1.20;;;;;;;-0.31;67.27;99670.00;5053139;28;20071;-61
2022/12/29 03:23:06;;;;;;;8.60;1.23;;;;;;;-0.30;66.70;99691.00;5052983;28;20037;-61
2022/12/29 03:25:43;;;;;;;4.63;1.30;;;;;;;-0.48;66.92;99661.00;5065995;28;20456;-62
2022/12/29 03:28:14;;;;;;;6.57;1.50;;;;;;;-0.30;66.96;99690.16;5073084;28;20036;-62
2022/12/29 03:30:41;;;;;;;4.70;1.45;;;;;;;-0.28;66.86;99698.84;5073085;28;20427;-62
2022/12/29 03:33:11;;;;;;;5.80;1.20;;;;;;;-0.31;66.75;99696.31;5072894;28;20221;-63
2022/12/29 03:35:40;;;;;;;6.32;1.70;;;;;;;-0.39;67.08;99701.88;5072350;28;20047;-62
2022/12/29 03:38:22;;;;;;;7.32;1.85;;;;;;;-0.32;67.15;99699.88;5072105;28;20025;-63
2022/12/29 03:40:58;;;;;;;6.40;1.35;;;;;;;-0.34;67.05;99705.22;5072953;28;20045;-61
2022/12/29 03:43:25;;;;;;;5.25;1.77;;;;;;;-0.38;67.13;99703.56;5072443;28;20032;-63
2022/12/29 03:45:50;;;;;;;4.93;1.83;;;;;;;-0.38;67.02;99703.56;5071456;28;20353;-62
2022/12/29 03:48:16;;;;;;;5.95;1.42;;;;;;;-0.35;67.11;99706.13;5072757;28;20024;-61
2022/12/29 03:50:41;;;;;;;7.93;1.80;;;;;;;-0.35;66.94;99715.78;5072503;28;20345;-63
2022/12/29 03:53:07;;;;;;;6.47;2.00;;;;;;;-0.42;67.11;99706.41;5071706;28;20408;-62
2022/12/29 03:55:32;;;;;;;7.00;1.95;;;;;;;-0.44;67.12;99715.22;5072286;28;20123;-63
2022/12/29 03:57:58;;;;;;;5.47;1.75;;;;;;;-0.39;67.15;99706.28;5072728;28;20028;-62
2022/12/29 04:00:23;;;;;;;4.97;1.85;;;;;;;-0.40;67.29;99715.94;5072364;28;20031;-63
2022/12/29 04:02:49;;;;;;;7.20;1.52;;;;;;;-0.38;67.48;99729.03;5072345;28;20501;-62
2022/12/29 04:05:15;;;;;;;8.00;2.15;;;;;;;-0.39;67.00;99728.16;5072101;28;20467;-61
2022/12/29 04:07:40;;;;;;;8.93;2.17;;;;;;;-0.36;66.88;99735.09;5072362;28;20123;-60
2022/12/29 04:10:06;;;;;;;7.47;2.10;;;;;;;-0.39;66.70;99722.06;5072801;28;20081;-62
2022/12/29 04:12:31;;;;;;;7.70;1.88;;;;;;;-0.57;66.89;99687.63;5072147;28;20032;-61
2022/12/29 04:14:56;;;;;;;10.43;1.90;;;;;;;-0.34;66.51;99728.88;5071652;28;20056;-61
2022/12/29 04:17:22;;;;;;;7.70;2.00;;;;;;;-0.34;66.21;99730.66;5071098;28;20029;-62
2022/12/29 04:19:48;;;;;;;5.13;1.73;;;;;;;-0.39;66.46;99722.06;5072032;28;20040;-62
2022/12/29 04:22:13;;;;;;;7.53;2.10;;;;;;;-0.45;66.36;99717.88;5072132;28;20043;-63
2022/12/29 04:24:39;;;;;;;6.13;1.77;;;;;;;-0.46;66.69;99730.19;5071403;28;20032;-61
2022/12/29 04:27:04;;;;;;;8.27;2.28;;;;;;;-0.47;66.57;99733.75;5072229;28;20445;-61
2022/12/29 04:29:30;;;;;;;6.47;2.25;;;;;;;-0.51;66.54;99728.63;5070842;28;20129;-61
2022/12/29 04:31:55;;;;;;;7.28;2.38;;;;;;;-0.48;66.31;99732.03;5071996;28;20041;-61
2022/12/29 04:34:21;;;;;;;6.97;1.88;;;;;;;-0.48;66.43;99729.41;5071235;28;20028;-64
2022/12/29 04:36:47;;;;;;;7.57;1.95;;;;;;;-0.47;66.78;99735.50;5072125;28;20032;-61
2022/12/29 04:39:12;;;;;;;9.63;2.28;;;;;;;-0.46;66.77;99738.09;5071977;28;20025;-61
2022/12/29 04:41:38;;;;;;;10.75;2.20;;;;;;;-0.43;66.81;99739.72;5072790;28;20095;-61
2022/12/29 04:44:03;;;;;;;7.35;2.20;;;;;;;-0.39;66.89;99745.75;5072024;28;20036;-63
2022/12/29 04:46:28;;;;;;;7.20;2.55;;;;;;;-0.38;66.46;99745.66;5071932;28;20367;-62
2022/12/29 04:48:54;;;;;;;7.93;2.10;;;;;;;-0.44;66.53;99736.25;5071871;28;20025;-61
2022/12/29 04:51:19;;;;;;;8.32;2.30;;;;;;;-0.41;66.46;99739.69;5071947;28;20032;-64
2022/12/29 04:53:45;;;;;;;8.13;2.30;;;;;;;-0.39;66.59;99748.38;5071622;28;20028;-62
2022/12/29 04:56:10;;;;;;;9.88;2.40;;;;;;;-0.41;66.25;99744.94;5072466;28;20028;-63
2022/12/29 04:58:36;;;;;;;7.68;2.50;;;;;;;-0.41;66.38;99747.56;5071823;28;20444;-63
2022/12/29 05:01:02;;;;;;;5.65;1.88;;;;;;;-0.41;66.48;99758.09;5071368;28;20041;-63
2022/12/29 05:03:27;;;;;;;9.23;2.60;;;;;;;-0.45;66.29;99752.94;5071731;28;20028;-62
2022/12/29 05:05:54;;;;;;;9.55;2.35;;;;;;;-0.88;66.54;99689.59;5071970;28;20029;-62
2022/12/29 05:08:20;;;;;;;7.50;2.13;;;;;;;-0.51;66.62;99758.41;5072054;28;20445;-62
2022/12/29 05:10:46;;;;;;;5.30;2.38;;;;;;;-0.57;66.87;99761.28;5071599;28;20109;-62
2022/12/29 05:13:12;;;;;;;6.55;2.65;;;;;;;-0.63;66.57;99762.34;5071717;28;20094;-63
2022/12/29 05:15:37;;;;;;;11.18;2.58;;;;;;;-0.73;66.77;99774.09;5071791;28;20032;-64
2022/12/29 05:18:18;;;;;;;7.93;2.83;;;;;;;-0.99;67.42;99732.94;5071640;28;20144;-63
2022/12/29 05:20:43;;;;;;;7.63;3.13;;;;;;;-1.01;67.53;99768.00;5071527;28;20033;-57
2022/12/29 05:23:09;;;;;;;5.45;2.53;;;;;;;-1.12;67.78;99769.28;5073839;28;20459;-59
2022/12/29 05:25:34;;;;;;;6.80;2.55;;;;;;;-1.20;68.43;99766.94;5074386;28;20029;-62
2022/12/29 05:28:00;;;;;;;5.07;2.40;;;;;;;-1.20;68.60;99775.66;5072800;28;20031;-62
2022/12/29 05:30:25;;;;;;;9.32;2.80;;;;;;;-1.17;68.45;99774.72;5074738;28;20041;-63
2022/12/29 05:32:51;;;;;;;9.65;2.60;;;;;;;-1.18;67.86;99771.22;5075333;28;20043;-62
2022/12/29 05:35:16;;;;;;;10.25;2.78;;;;;;;-1.33;67.84;99740.19;5074304;28;20516;-62
2022/12/29 05:37:42;;;;;;;5.78;2.13;;;;;;;-1.13;67.86;99773.69;5075112;28;20040;-58
2022/12/29 05:40:08;;;;;;;9.15;2.42;;;;;;;-1.13;67.60;99778.06;5073860;28;20089;-57
2022/12/29 05:42:33;;;;;;;8.57;2.40;;;;;;;-1.12;67.63;99785.91;5074843;28;20038;-55
2022/12/29 05:44:58;;;;;;;7.38;2.97;;;;;;;-1.13;67.77;99794.72;5074152;28;20039;-55
2022/12/29 05:47:24;;;;;;;10.15;3.10;;;;;;;-1.13;67.44;99784.19;5074998;28;20111;-58
2022/12/29 05:49:49;;;;;;;7.95;3.08;;;;;;;-1.15;67.83;99783.41;5074557;28;20128;-59
2022/12/29 05:52:44;;;;;;;5.75;2.55;;;;;;;-1.05;67.96;99783.97;5074633;28;20024;-52
2022/12/29 05:55:10;;;;;;;7.20;3.00;;;;;;;-1.08;67.37;99790.16;5057282;28;20121;-60
2022/12/29 05:57:36;;;;;;;7.57;2.90;;;;;;;-1.07;67.57;99788.41;5074828;28;20044;-62
2022/12/29 06:00:04;;;;;;;10.20;3.13;;;;;;;-1.04;67.86;99801.44;5074444;28;20033;-60
2022/12/29 06:02:30;;;;;;;7.50;2.97;;;;;;;-1.07;67.79;99793.66;5074095;28;20024;-62
2022/12/29 06:04:55;;;;;;;9.10;2.92;;;;;;;-1.05;68.06;99791.84;5074751;28;20043;-60
2022/12/29 06:07:21;;;;;;;8.43;3.10;;;;;;;-1.07;67.32;99786.63;5056632;28;20024;-64
2022/12/29 06:09:46;;;;;;;12.13;3.30;;;;;;;-0.97;67.68;99794.19;5074388;28;20478;-58
2022/12/29 06:12:12;;;;;;;8.13;3.40;;;;;;;-0.97;67.87;99788.94;5074654;28;20020;-58
2022/12/29 06:14:37;;;;;;;9.70;3.40;;;;;;;-0.97;67.42;99786.28;5073968;28;20043;-58
2022/12/29 06:17:03;;;;;;;7.07;3.40;;;;;;;-0.86;67.18;99797.31;5073592;28;20115;-59
2022/12/29 06:19:28;;;;;;;7.38;3.65;;;;;;;-0.84;67.49;99787.63;5074250;28;20036;-61
2022/12/29 06:21:54;;;;;;;8.32;3.25;;;;;;;-0.81;67.38;99790.13;5074153;28;20035;-60
2022/12/29 06:24:20;;;;;;;15.90;3.60;;;;;;;-0.89;66.97;99785.13;5073121;28;20043;-60
2022/12/29 06:26:46;;;;;;;11.80;3.25;;;;;;;-0.86;67.03;99794.69;5073819;28;20101;-56
2022/12/29 06:29:13;;;;;;;7.38;3.67;;;;;;;-0.87;67.26;99799.09;5070787;28;20407;-60
2022/12/29 06:31:38;;;;;;;7.18;3.03;;;;;;;-0.85;67.52;99798.16;5073832;28;20048;-60
2022/12/29 06:34:04;;;;;;;8.98;3.50;;;;;;;-0.80;67.01;99802.38;5072384;28;20036;-58
2022/12/29 06:36:29;;;;;;;8.20;3.20;;;;;;;-0.75;67.33;99810.94;5073719;28;20029;-59
2022/12/29 06:38:55;;;;;;;10.00;3.50;;;;;;;-0.67;66.50;99812.47;5073249;28;20103;-58
2022/12/29 06:41:21;;;;;;;10.60;3.00;;;;;;;-0.70;66.77;99799.44;5072826;28;20029;-59
2022/12/29 06:43:46;;;;;;;7.85;3.15;;;;;;;-0.59;66.68;99818.31;5073968;28;20040;-62
2022/12/29 06:46:12;;;;;;;9.00;3.33;;;;;;;-0.54;66.51;99812.91;5073705;28;20457;-58
2022/12/29 06:48:37;;;;;;;7.40;3.20;;;;;;;-0.54;66.25;99813.75;5072748;28;20055;-58
2022/12/29 06:51:03;;;;;;;9.45;3.05;;;;;;;-0.47;65.91;99823.16;5071957;28;20025;-59
2022/12/29 06:53:28;;;;;;;8.65;2.97;;;;;;;-0.48;65.71;99808.31;5073495;28;20047;-58
2022/12/29 06:55:54;;;;;;;8.38;3.03;;;;;;;-0.75;65.71;99776.78;5072976;28;20032;-61
2022/12/29 06:58:19;;;;;;;8.93;2.70;;;;;;;-0.52;65.84;99811.94;5073283;28;20352;-59
2022/12/29 07:00:45;;;;;;;8.05;2.72;;;;;;;-0.73;66.16;99774.94;5073402;28;20353;-56
2022/12/29 07:03:10;;;;;;;8.18;2.85;;;;;;;-0.51;65.96;99810.16;5072995;28;20047;-58
2022/12/29 07:05:36;;;;;;;8.18;2.72;;;;;;;-0.47;65.76;99796.00;5072467;28;20033;-59
2022/12/29 07:08:02;;;;;;;6.13;2.63;;;;;;;-0.52;65.91;99788.25;5072716;28;20028;-57
2022/12/29 07:10:27;;;;;;;10.13;3.20;;;;;;;-0.49;65.69;99805.72;5073184;28;20028;-60
2022/12/29 07:12:53;;;;;;;10.20;3.17;;;;;;;-0.45;66.33;99815.22;5067834;28;20037;-67
2022/12/29 07:15:18;;;;;;;10.18;3.08;;;;;;;-0.39;66.12;99811.50;5070521;28;20066;-59
2022/12/29 07:17:44;;;;;;;12.38;3.08;;;;;;;-0.31;65.83;99812.09;5071546;28;20153;-60
2022/12/29 07:20:10;;;;;;;9.57;3.17;;;;;;;-0.30;65.56;99804.16;5071605;28;20035;-59
2022/12/29 07:22:35;;;;;;;6.75;2.70;;;;;;;-0.28;65.57;99809.34;5072520;28;20033;-56
2022/12/29 07:25:02;;;;;;;7.80;2.83;;;;;;;-0.26;65.09;99817.19;5071875;28;20032;-59
2022/12/29 07:27:29;;;;;;;5.57;2.60;;;;;;;-0.27;64.51;99813.69;5071586;28;20029;-64
2022/12/29 07:29:54;;;;;;;4.80;2.25;;;;;;;-0.28;64.66;99811.97;5072257;28;20044;-60
2022/12/29 07:32:20;;;;;;;11.00;2.78;;;;;;;-0.39;65.02;99822.03;5072443;28;20452;-64
2022/12/29 07:34:47;;;;;;;8.73;3.08;;;;;;;-0.41;64.92;99810.72;5072536;28;20032;-66
2022/12/29 07:37:15;;;;;;;10.45;3.03;;;;;;;-0.36;65.54;99811.41;5053767;28;20404;-64
2022/12/29 07:39:40;;;;;;;15.60;3.25;;;;;;;-0.29;65.83;99818.16;5071371;28;20449;-64
2022/12/29 07:42:06;;;;;;;9.43;3.90;;;;;;;-0.21;65.26;99813.50;5072035;28;20043;-66
2022/12/29 07:44:31;;;;;;;6.82;3.22;;;;;;;-0.30;64.94;99780.47;5070824;28;20048;-65
2022/12/29 07:46:57;;;;;;;9.63;3.45;;;;;;;-0.02;64.72;99820.69;5067519;28;20127;-56
2022/12/29 07:49:22;;;;;;;13.13;3.90;;;;;;;0.02;64.50;99809.16;5071973;28;20036;-53
2022/12/29 07:51:48;;;;;;;12.48;4.28;;;;;;;-0.04;64.13;99791.81;5071889;28;20036;-54
2022/12/29 07:54:13;;;;;;;14.93;5.07;;;;;;;0.15;63.84;99814.81;5071536;28;20068;-56
2022/12/29 07:56:39;;;;;;;10.13;4.30;;;;;;;0.19;63.88;99823.44;5071671;28;20085;-59
2022/12/29 07:59:04;;;;;;;9.05;4.32;;;;;;;0.25;63.97;99824.06;5071895;28;20036;-58
2022/12/29 08:01:30;;;;;;;8.07;4.25;;;;;;;0.34;63.77;99837.78;5070941;28;20025;-55
2022/12/29 08:03:55;;;;;;;10.80;4.53;;;;;;;0.36;63.66;99823.66;5070416;28;20119;-53
2022/12/29 08:06:22;;;;;;;11.73;3.90;;;;;;;0.19;62.86;99791.84;5071915;28;20043;-55
2022/12/29 08:08:48;;;;;;;13.43;4.65;;;;;;;0.46;62.97;99836.47;5072400;28;20095;-58
2022/12/29 08:11:13;;;;;;;12.52;4.72;;;;;;;0.47;62.88;99833.78;5070164;28;20436;-53
2022/12/29 08:13:38;;;;;;;13.88;4.72;;;;;;;0.19;62.49;99797.09;5071034;28;20032;-59
2022/12/29 08:16:04;;;;;;;11.55;4.30;;;;;;;0.25;63.40;99844.28;5071045;28;20042;-55
2022/12/29 08:18:29;;;;;;;8.40;4.18;;;;;;;0.19;63.49;99840.09;5071115;28;20092;-60
2022/12/29 08:20:55;;;;;;;10.75;4.22;;;;;;;0.14;62.94;99842.91;5071253;28;20345;-53
2022/12/29 08:23:20;;;;;;;7.70;4.25;;;;;;;0.11;63.35;99837.75;5071347;28;20103;-53
2022/12/29 08:25:46;;;;;;;10.43;4.78;;;;;;;0.07;63.38;99833.53;5069476;28;20119;-55
2022/12/29 08:28:11;;;;;;;16.63;5.47;;;;;;;0.13;63.44;99835.91;5071076;28;20067;-53
2022/12/29 08:30:38;;;;;;;17.92;6.80;;;;;;;0.21;63.75;99837.41;5071560;28;20075;-55
2022/12/29 08:33:04;;;;;;;16.27;7.38;;;;;;;0.11;63.62;99807.91;5068957;28;20036;-53
2022/12/29 08:35:29;;;;;;;13.30;5.93;;;;;;;0.42;63.01;99843.66;5071084;28;20177;-56
2022/12/29 08:37:54;;;;;;;14.07;6.68;;;;;;;0.43;62.69;99833.03;5071625;28;20044;-59
2022/12/29 08:40:20;;;;;;;14.00;7.25;;;;;;;0.48;63.00;99842.53;5070852;28;20036;-57
2022/12/29 08:42:45;;;;;;;15.20;7.55;;;;;;;0.52;63.34;99838.88;5070474;28;20028;-53
2022/12/29 08:45:11;;;;;;;14.98;6.63;;;;;;;0.50;62.85;99827.56;5070869;28;20067;-54
2022/12/29 08:47:36;;;;;;;13.13;6.70;;;;;;;0.43;62.51;99805.84;5071545;28;20028;-55
2022/12/29 08:50:02;;;;;;;14.20;6.05;;;;;;;0.73;62.47;99836.34;5071561;28;20048;-55
2022/12/29 08:52:28;;;;;;;15.75;5.82;;;;;;;0.87;62.20;99831.34;5071168;28;20090;-54
2022/12/29 08:54:54;;;;;;;14.65;6.93;;;;;;;1.01;61.52;99836.06;5071315;28;20040;-54
2022/12/29 08:57:19;;;;;;;17.95;7.95;;;;;;;1.19;61.52;99837.06;5073415;28;20081;-55
2022/12/29 08:59:44;;;;;;;14.75;6.03;;;;;;;1.34;60.83;99840.88;5075426;28;20101;-55
2022/12/29 09:02:11;;;;;;;15.70;6.18;;;;;;;1.44;60.26;99843.94;5074959;28;20499;-54
2022/12/29 09:04:36;;;;;;;12.45;6.20;;;;;;;1.42;59.98;99841.38;5075031;28;20108;-58
2022/12/29 09:07:02;;;;;;;10.73;6.00;;;;;;;1.23;59.64;99807.03;5075415;28;20128;-53
2022/12/29 09:09:27;;;;;;;11.95;6.72;;;;;;;1.32;60.15;99840.03;5074310;28;20028;-53
2022/12/29 09:11:52;;;;;;;15.80;7.20;;;;;;;1.22;59.76;99844.88;5073900;28;20085;-52
2022/12/29 09:14:19;;;;;;;16.38;7.07;;;;;;;1.21;60.48;99848.44;5075381;28;20444;-56
2022/12/29 09:19:28;;;;;;;12.23;8.00;;;;;;;1.14;60.08;99857.50;5074611;28;20040;-51
2022/12/29 09:21:54;;;;;;;14.98;8.20;;;;;;;0.82;60.71;99818.34;5074838;28;20036;-58
2022/12/29 09:24:20;;;;;;;16.88;9.50;;;;;;;0.96;61.34;99843.28;5073124;28;20398;-69
2022/12/29 09:26:45;;;;;;;18.38;8.82;;;;;;;0.90;61.04;99844.41;5074825;28;20020;-56
2022/12/29 09:29:11;;;;;;;17.38;9.82;;;;;;;0.80;60.95;99843.06;5073707;28;20041;-57
2022/12/29 09:31:36;;;;;;;17.38;10.20;;;;;;;0.53;61.23;99812.47;5074547;28;20102;-55
2022/12/29 09:34:02;;;;;;;20.73;11.65;;;;;;;0.64;61.58;99842.81;5074624;28;20040;-63
2022/12/29 09:36:27;;;;;;;19.48;10.23;;;;;;;0.27;61.68;99781.88;5074621;28;20449;-57
2022/12/29 09:38:53;;;;;;;17.88;11.07;;;;;;;0.65;61.86;99844.53;5074415;28;20071;-57
2022/12/29 09:42:00;;;;;;;16.98;10.50;;;;;;;0.75;61.88;99839.75;5074670;28;20048;-56
2022/12/29 09:44:49;;;;;;;20.70;9.40;;;;;;;0.76;61.77;99841.47;5061943;28;20049;-55
2022/12/29 09:47:17;;;;;;;17.05;10.32;;;;;;;0.45;61.49;99813.69;5054966;28;20064;-55
2022/12/29 09:49:52;;;;;;;18.27;9.30;;;;;;;0.64;61.48;99845.44;5054113;28;20055;-58
2022/12/29 09:52:32;;;;;;;21.10;10.00;;;;;;;0.63;61.56;99841.94;5053559;28;20302;-55
2022/12/29 09:55:00;;;;;;;19.25;9.85;;;;;;;0.63;62.47;99854.28;5054586;28;20033;-57
2022/12/29 09:57:37;;;;;;;16.90;8.52;;;;;;;0.71;61.63;99857.47;5058181;28;20021;-60
2022/12/29 10:00:33;;;;;;;13.98;8.10;;;;;;;0.83;62.18;99851.69;5058005;28;20106;-53
2022/12/29 10:03:07;;;;;;;11.98;7.95;;;;;;;0.79;61.12;99858.00;5074010;28;20036;-58
2022/12/29 10:05:48;;;;;;;15.15;7.30;;;;;;;0.57;61.40;99816.69;5073930;28;20033;-52
2022/12/29 10:08:38;;;;;;;14.38;7.65;;;;;;;0.57;61.89;99821.13;5074342;28;20115;-62
2022/12/29 10:11:33;;;;;;;12.82;7.78;;;;;;;0.68;62.66;99842.63;5074068;28;20024;-62
2022/12/29 10:13:59;;;;;;;14.98;8.15;;;;;;;0.60;61.92;99842.06;5056234;28;20090;-57
2022/12/29 10:16:30;;;;;;;17.35;8.50;;;;;;;0.49;62.41;99812.66;5071013;28;20028;-56
2022/12/29 10:19:16;;;;;;;17.73;8.93;;;;;;;0.65;62.04;99849.81;5073983;28;20428;-55
2022/12/29 10:22:12;;;;;;;17.75;7.88;;;;;;;0.66;62.51;99849.72;5074046;28;20715;-57
2022/12/29 10:24:39;;;;;;;21.33;8.00;;;;;;;0.62;61.99;99839.38;5073337;28;20407;-54
2022/12/29 10:27:11;;;;;;;13.35;7.55;;;;;;;0.57;61.82;99844.81;5071986;28;20047;-56
2022/12/29 10:29:58;;;;;;;15.82;8.27;;;;;;;0.58;62.28;99851.81;5053673;28;20036;-55
2022/12/29 10:32:41;;;;;;;16.90;8.25;;;;;;;0.59;62.34;99850.00;5053437;28;20562;-56
2022/12/29 10:35:16;;;;;;;16.42;7.50;;;;;;;0.57;61.89;99850.09;5063252;28;20060;-56
2022/12/29 10:38:10;;;;;;;15.95;7.22;;;;;;;0.54;62.24;99851.06;5073342;28;20043;-58
2022/12/29 10:40:42;;;;;;;14.20;7.55;;;;;;;0.46;62.45;99847.00;5053523;28;20041;-53
2022/12/29 10:43:18;;;;;;;16.73;8.15;;;;;;;0.46;62.35;99850.50;5057884;28;20047;-56
2022/12/29 10:45:44;;;;;;;14.00;8.27;;;;;;;0.30;62.52;99844.09;5073485;28;20066;-62
2022/12/29 10:48:20;;;;;;;17.30;7.88;;;;;;;0.28;62.60;99852.06;5073196;28;20036;-58
2022/12/29 10:50:48;;;;;;;18.92;8.73;;;;;;;0.06;62.42;99826.53;5054260;28;20037;-59
2022/12/29 10:53:20;;;;;;;18.98;9.48;;;;;;;0.18;63.14;99846.28;5053588;28;20036;-57
2022/12/29 10:55:47;;;;;;;20.10;9.25;;;;;;;0.17;62.54;99843.69;5053197;28;20104;-58
2022/12/29 10:58:14;;;;;;;15.60;9.20;;;;;;;0.15;63.06;99843.78;5064258;28;20471;-58
2022/12/29 11:00:41;;;;;;;18.08;9.52;;;;;;;0.23;63.10;99844.34;5073664;28;20024;-60
2022/12/29 11:03:31;;;;;;;13.80;8.90;;;;;;;0.35;62.64;99829.84;5073136;28;20039;-55
2022/12/29 11:06:23;;;;;;;18.90;8.52;;;;;;;0.47;62.94;99825.88;5052587;28;20048;-58
2022/12/29 11:09:21;;;;;;;19.48;11.30;;;;;;;0.59;62.90;99823.66;5053442;28;20108;-58
2022/12/29 11:11:46;;;;;;;18.15;9.77;;;;;;;0.54;62.45;99818.59;5051470;28;20106;-58
2022/12/29 11:14:21;;;;;;;17.35;9.98;;;;;;;0.56;62.21;99827.31;5071377;28;20423;-60
2022/12/29 11:17:00;;;;;;;18.92;10.10;;;;;;;0.54;62.39;99829.97;5072695;28;20038;-61
2022/12/29 11:19:28;;;;;;;18.05;9.73;;;;;;;0.47;62.82;99830.28;5071277;28;20029;-59
2022/12/29 11:21:53;;;;;;;17.40;8.90;;;;;;;0.35;62.85;99827.22;5073052;28;20025;-58
2022/12/29 11:24:19;;;;;;;15.10;8.10;;;;;;;0.45;62.59;99827.72;5072752;28;20401;-58
2022/12/29 11:26:44;;;;;;;15.45;8.02;;;;;;;0.38;63.28;99829.72;5069948;28;20565;-58
2022/12/29 11:29:16;;;;;;;16.05;8.02;;;;;;;0.42;63.62;99827.84;5071431;28;20101;-57
2022/12/29 11:31:57;;;;;;;15.05;8.02;;;;;;;0.42;63.36;99823.41;5072088;28;20048;-57
2022/12/29 11:34:32;;;;;;;13.77;8.35;;;;;;;0.45;63.30;99830.34;5072093;28;20137;-60
2022/12/29 11:37:19;;;;;;;16.75;7.93;;;;;;;0.53;63.90;99823.00;5071256;28;20075;-57
2022/12/29 11:39:59;;;;;;;12.85;7.78;;;;;;;0.32;63.14;99781.69;5060013;28;20056;-57
2022/12/29 11:42:39;;;;;;;13.48;7.50;;;;;;;0.63;63.49;99822.66;5067047;28;20361;-56
2022/12/29 11:45:25;;;;;;;22.67;8.82;;;;;;;0.73;63.00;99823.16;5051912;28;20086;-57
2022/12/29 11:47:58;;;;;;;17.50;9.63;;;;;;;0.68;63.05;99816.25;5052148;28;20037;-58
2022/12/29 11:50:27;;;;;;;17.02;8.85;;;;;;;0.78;63.04;99823.81;5052168;28;20033;-54
2022/12/29 11:53:00;;;;;;;17.40;9.07;;;;;;;0.86;62.69;99837.53;5060168;28;20036;-61
2022/12/29 11:55:27;;;;;;;16.60;8.77;;;;;;;0.87;62.81;99825.22;5070863;28;20036;-57
2022/12/29 11:57:57;;;;;;;18.50;8.63;;;;;;;0.95;62.26;99831.88;5062998;28;20032;-65
2022/12/29 12:00:25;;;;;;;16.77;9.30;;;;;;;0.98;62.41;99841.44;5058628;28;20032;-61
2022/12/29 12:03:20;;;;;;;15.75;8.15;;;;;;;1.10;62.38;99845.38;5071176;28;20047;-57
2022/12/29 12:05:53;;;;;;;14.98;8.35;;;;;;;1.03;62.67;99852.66;5053731;28;20044;-53
2022/12/29 12:08:33;;;;;;;16.75;8.18;;;;;;;1.05;62.60;99848.19;5071125;28;20039;-55
2022/12/29 12:11:18;;;;;;;14.77;8.50;;;;;;;1.03;62.39;99841.28;5071978;28;20040;-56
2022/12/29 12:13:50;;;;;;;12.20;7.53;;;;;;;1.13;62.85;99858.41;5071426;28;20036;-56
2022/12/29 12:16:20;;;;;;;16.88;7.85;;;;;;;1.07;62.41;99858.69;5059776;28;20093;-54
2022/12/29 12:18:54;;;;;;;14.05;7.80;;;;;;;1.10;62.74;99863.81;5071488;28;20047;-54
2022/12/29 12:21:45;;;;;;;17.70;8.95;;;;;;;1.01;62.54;99854.50;5072000;28;20028;-55
2022/12/29 12:24:26;;;;;;;12.93;7.80;;;;;;;1.02;62.85;99843.03;5070026;28;20087;-53
2022/12/29 12:27:19;;;;;;;13.25;8.00;;;;;;;1.13;63.09;99845.25;5070864;28;20452;-59